createdAt,value
2022-09-17T00:01:37.128Z,12.30
2022-09-17T00:04:05.436Z,12.50
2022-09-17T00:06:34.271Z,12.60
2022-09-17T00:09:02.252Z,12.13
2022-09-17T00:11:31.382Z,12.65
2022-09-17T00:14:01.663Z,12.48
2022-09-17T00:16:31.084Z,11.90
2022-09-17T00:18:59.027Z,11.93
2022-09-17T00:21:27.087Z,12.68
2022-09-17T00:23:56.023Z,12.73
2022-09-17T00:26:23.792Z,12.02
2022-09-17T00:28:52.217Z,12.05
2022-09-17T00:31:21.342Z,11.80
2022-09-17T00:33:49.082Z,12.00
2022-09-17T00:36:16.730Z,11.68
2022-09-17T00:38:44.412Z,11.52
2022-09-17T00:41:12.074Z,11.35
2022-09-17T00:43:43.089Z,11.02
2022-09-17T00:46:19.712Z,10.98
2022-09-17T00:48:49.067Z,11.00
2022-09-17T00:51:18.693Z,11.13
2022-09-17T00:53:46.365Z,10.65
2022-09-17T00:56:19.224Z,10.07
2022-09-17T00:58:46.863Z,9.95
2022-09-17T01:01:15.018Z,10.25
2022-09-17T01:03:42.809Z,9.25
2022-09-17T01:06:16.626Z,8.65
2022-09-17T01:08:50.205Z,8.77
2022-09-17T01:11:28.248Z,8.40
2022-09-17T01:14:01.989Z,8.57
2022-09-17T01:16:32.273Z,8.85
2022-09-17T01:19:05.642Z,8.60
2022-09-17T01:21:52.130Z,8.20
2022-09-17T01:24:50.502Z,7.43
2022-09-17T01:27:52.787Z,7.00
2022-09-17T01:30:42.394Z,7.95
2022-09-17T01:33:14.066Z,6.55
2022-09-17T01:35:46.245Z,6.60
2022-09-17T01:38:15.972Z,6.35
2022-09-17T01:40:46.807Z,6.35
2022-09-17T01:43:18.764Z,6.30
2022-09-17T01:45:49.553Z,5.85
2022-09-17T01:48:19.151Z,5.88
2022-09-17T01:50:48.718Z,5.40
2022-09-17T01:53:16.360Z,5.53
2022-09-17T01:55:44.765Z,5.40
2022-09-17T01:58:14.456Z,5.65
2022-09-17T02:00:43.492Z,5.00
2022-09-17T02:03:11.740Z,4.75
2022-09-17T02:05:41.335Z,4.70
2022-09-17T02:08:10.231Z,5.00
2022-09-17T02:10:38.785Z,4.25
2022-09-17T02:13:08.932Z,4.38
2022-09-17T02:15:39.114Z,4.05
2022-09-17T02:18:07.776Z,3.97
2022-09-17T02:20:39.962Z,3.50
2022-09-17T02:23:11.731Z,3.20
2022-09-17T02:25:41.685Z,3.10
2022-09-17T02:28:12.527Z,3.15
2022-09-17T02:30:40.169Z,3.03
2022-09-17T02:33:08.543Z,2.85
2022-09-17T02:35:39.015Z,2.50
2022-09-17T02:38:06.651Z,2.47
2022-09-17T02:40:37.058Z,2.83
2022-09-17T02:43:09.504Z,2.30
2022-09-17T02:45:46.795Z,2.58
2022-09-17T02:48:34.999Z,1.90
2022-09-17T02:51:21.443Z,2.22
2022-09-17T02:53:52.206Z,2.00
2022-09-17T02:56:25.104Z,1.92
2022-09-17T02:58:56.482Z,1.70
2022-09-17T03:01:26.340Z,1.83
2022-09-17T03:03:53.990Z,2.20
2022-09-17T03:06:22.422Z,1.67
2022-09-17T03:08:50.264Z,1.63
2022-09-17T03:11:18.047Z,1.83
2022-09-17T03:13:47.112Z,1.63
2022-09-17T03:16:14.857Z,1.15
2022-09-17T03:18:42.919Z,2.42
2022-09-17T03:21:12.367Z,1.48
2022-09-17T03:23:40.024Z,1.58
2022-09-17T03:26:07.675Z,1.95
2022-09-17T03:28:35.332Z,1.52
2022-09-17T03:31:05.673Z,1.60
2022-09-17T03:33:33.372Z,1.70
2022-09-17T03:36:01.126Z,1.35
2022-09-17T03:38:28.758Z,1.00
2022-09-17T03:41:00.056Z,1.35
2022-09-17T03:43:27.814Z,1.25
2022-09-17T03:45:55.640Z,1.63
2022-09-17T03:48:24.593Z,1.13
2022-09-17T03:50:52.213Z,1.85
2022-09-17T03:53:19.958Z,1.35
2022-09-17T03:55:47.584Z,1.42
2022-09-17T03:58:15.269Z,1.58
2022-09-17T04:00:42.968Z,1.58
2022-09-17T04:03:10.632Z,2.22
2022-09-17T04:05:39.606Z,1.65
2022-09-17T04:08:07.267Z,1.35
2022-09-17T04:10:34.908Z,1.20
2022-09-17T04:13:02.537Z,1.20
2022-09-17T04:15:30.205Z,1.42
2022-09-17T04:17:58.601Z,1.00
2022-09-17T04:20:26.436Z,1.52
2022-09-17T04:22:55.404Z,1.48
2022-09-17T04:25:23.051Z,0.95
2022-09-17T04:27:50.754Z,1.45
2022-09-17T04:30:18.530Z,2.00
2022-09-17T04:32:46.517Z,1.83
2022-09-17T04:35:14.280Z,1.50
2022-09-17T04:37:41.918Z,1.50
2022-09-17T04:40:11.844Z,1.70
2022-09-17T04:42:39.547Z,1.00
2022-09-17T04:45:08.024Z,1.50
2022-09-17T04:47:38.776Z,1.52
2022-09-17T04:50:06.956Z,1.10
2022-09-17T04:52:34.571Z,1.05
2022-09-17T04:55:02.204Z,1.27
2022-09-17T04:57:31.184Z,1.27
2022-09-17T04:59:58.802Z,1.40
2022-09-17T05:02:26.576Z,1.52
2022-09-17T05:04:54.283Z,1.63
2022-09-17T05:07:21.917Z,1.65
2022-09-17T05:09:49.584Z,1.33
2022-09-17T05:12:17.307Z,1.08
2022-09-17T05:14:46.296Z,1.63
2022-09-17T05:17:13.943Z,1.05
2022-09-17T05:19:41.657Z,1.50
2022-09-17T05:22:09.337Z,1.13
2022-09-17T05:24:39.237Z,1.58
2022-09-17T05:27:07.032Z,1.67
2022-09-17T05:29:34.697Z,1.50
2022-09-17T05:32:04.024Z,1.48
2022-09-17T05:34:31.677Z,1.30
2022-09-17T05:36:59.324Z,2.38
2022-09-17T05:39:26.955Z,1.55
2022-09-17T05:41:54.727Z,1.17
2022-09-17T05:44:23.565Z,1.30
2022-09-17T05:46:53.885Z,0.93
2022-09-17T05:49:22.925Z,1.65
2022-09-17T05:51:51.185Z,0.95
2022-09-17T05:54:18.939Z,1.02
2022-09-17T05:56:46.591Z,1.90
2022-09-17T05:59:15.460Z,0.98
2022-09-17T06:01:43.332Z,1.15
2022-09-17T06:04:11.119Z,1.35
2022-09-17T06:06:41.644Z,1.02
2022-09-17T06:09:09.815Z,1.13
2022-09-17T06:11:38.043Z,2.08
2022-09-17T06:14:05.762Z,1.13
2022-09-17T06:16:33.474Z,1.20
2022-09-17T06:19:01.187Z,1.33
2022-09-17T06:21:28.847Z,1.10
2022-09-17T06:23:57.819Z,1.08
2022-09-17T06:26:25.682Z,0.88
2022-09-17T06:28:53.318Z,0.90
2022-09-17T06:31:21.032Z,1.08
2022-09-17T06:33:49.123Z,0.90
2022-09-17T06:36:16.767Z,1.88
2022-09-17T06:38:44.455Z,1.50
2022-09-17T06:41:14.524Z,2.17
2022-09-17T06:43:42.511Z,0.98
2022-09-17T06:46:10.643Z,1.35
2022-09-17T06:48:38.600Z,1.02
2022-09-17T06:51:07.436Z,1.15
2022-09-17T06:53:36.579Z,1.13
2022-09-17T06:56:06.718Z,1.20
2022-09-17T06:58:37.002Z,0.93
2022-09-17T07:01:05.086Z,1.23
2022-09-17T07:03:33.054Z,1.50
2022-09-17T07:06:00.760Z,0.98
2022-09-17T07:08:28.488Z,1.23
2022-09-17T07:10:56.674Z,1.27
2022-09-17T07:13:24.358Z,0.93
2022-09-17T07:15:56.601Z,1.20
2022-09-17T07:18:24.365Z,1.00
2022-09-17T07:20:55.692Z,0.77
2022-09-17T07:23:24.303Z,2.58
2022-09-17T07:25:55.178Z,1.15
2022-09-17T07:28:23.057Z,0.98
2022-09-17T07:30:50.985Z,1.08
2022-09-17T07:33:23.216Z,1.23
2022-09-17T07:35:53.996Z,1.35
2022-09-17T07:38:22.637Z,1.02
2022-09-17T07:40:57.971Z,0.88
2022-09-17T07:43:26.312Z,1.20
2022-09-17T07:45:54.066Z,0.95
2022-09-17T07:48:23.126Z,1.40
2022-09-17T07:50:50.832Z,0.93
2022-09-17T07:53:18.550Z,0.70
2022-09-17T07:55:52.456Z,1.38
2022-09-17T07:58:20.415Z,0.80
2022-09-17T08:00:48.285Z,1.05
2022-09-17T08:03:15.947Z,1.13
2022-09-17T08:05:44.995Z,0.73
2022-09-17T08:08:12.701Z,0.73
2022-09-17T08:10:40.401Z,1.30
2022-09-17T08:13:08.291Z,1.08
2022-09-17T08:15:36.010Z,1.00
2022-09-17T08:18:03.769Z,0.88
2022-09-17T08:20:31.500Z,1.17
2022-09-17T08:23:01.212Z,0.75
2022-09-17T08:25:28.908Z,0.93
2022-09-17T08:27:57.246Z,1.02
2022-09-17T08:30:25.140Z,0.90
2022-09-17T08:32:53.182Z,0.70
2022-09-17T08:35:20.883Z,1.17
2022-09-17T08:37:48.672Z,1.40
2022-09-17T08:40:21.156Z,2.83
2022-09-17T08:42:54.098Z,3.67
2022-09-17T08:45:21.876Z,6.43
2022-09-17T08:47:49.605Z,21.73
2022-09-17T08:50:19.197Z,10.57
2022-09-17T08:53:11.570Z,14.45
2022-09-17T08:55:43.711Z,13.90
2022-09-17T08:58:41.546Z,7.90
2022-09-17T09:01:16.862Z,8.38
2022-09-17T09:04:05.428Z,9.07
2022-09-17T09:06:35.289Z,14.13
2022-09-17T09:09:04.415Z,10.20
2022-09-17T09:11:33.861Z,12.45
2022-09-17T09:14:05.016Z,19.00
2022-09-17T09:16:33.540Z,16.27
2022-09-17T09:19:05.386Z,11.63
2022-09-17T09:21:36.941Z,15.65
2022-09-17T09:24:06.410Z,18.13
2022-09-17T09:26:40.987Z,14.00
2022-09-17T09:29:13.355Z,12.45
2022-09-17T09:31:49.669Z,23.48
2022-09-17T09:34:17.515Z,13.07
2022-09-17T09:36:45.251Z,17.08
2022-09-17T09:39:16.824Z,13.30
2022-09-17T09:41:47.101Z,15.07
2022-09-17T09:44:15.795Z,17.92
2022-09-17T09:47:08.309Z,16.50
2022-09-17T09:49:43.644Z,12.43
2022-09-17T09:52:19.259Z,29.00
2022-09-17T09:54:54.456Z,16.75
2022-09-17T09:57:26.988Z,15.75
2022-09-17T10:00:20.864Z,11.90
2022-09-17T10:02:48.710Z,16.45
2022-09-17T10:05:17.006Z,14.25
2022-09-17T10:07:45.425Z,13.57
2022-09-17T10:10:13.458Z,13.57
2022-09-17T10:12:42.648Z,17.40
2022-09-17T10:15:27.027Z,8.85
2022-09-17T10:18:13.930Z,18.50
2022-09-17T10:20:54.066Z,13.20
2022-09-17T10:23:22.029Z,7.63
2022-09-17T10:25:50.128Z,9.13
2022-09-17T10:28:44.181Z,11.95
2022-09-17T10:31:12.145Z,8.75
2022-09-17T10:33:41.898Z,13.27
2022-09-17T10:36:10.888Z,6.22
2022-09-17T10:38:39.414Z,14.02
2022-09-17T10:41:11.743Z,15.90
2022-09-17T10:43:39.487Z,19.10
2022-09-17T10:46:09.697Z,19.13
2022-09-17T10:48:41.059Z,11.18
2022-09-17T10:51:09.972Z,13.63
2022-09-17T10:53:52.936Z,13.52
2022-09-17T10:56:21.640Z,29.00
2022-09-17T10:58:53.072Z,15.57
2022-09-17T11:01:30.207Z,14.38
2022-09-17T11:04:08.635Z,14.02
2022-09-17T11:06:58.134Z,13.57
2022-09-17T11:09:31.640Z,13.07
2022-09-17T11:12:07.144Z,16.13
2022-09-17T11:14:41.672Z,14.77
2022-09-17T11:17:13.944Z,13.63
2022-09-17T11:19:46.701Z,17.75
2022-09-17T11:22:18.908Z,18.50
2022-09-17T11:25:09.294Z,18.90
2022-09-17T11:27:46.992Z,10.23
2022-09-17T11:30:18.596Z,23.05
2022-09-17T11:33:14.928Z,18.67
2022-09-17T11:35:46.348Z,13.32
2022-09-17T11:38:15.452Z,16.50
2022-09-17T11:40:45.160Z,9.13
2022-09-17T11:43:18.765Z,14.10
2022-09-17T11:45:53.162Z,15.90
2022-09-17T11:48:21.526Z,5.40
2022-09-17T11:50:51.448Z,3.15
2022-09-17T11:53:20.543Z,5.05
2022-09-17T11:55:51.378Z,7.72
2022-09-17T11:58:23.229Z,5.57
2022-09-17T12:00:53.422Z,5.82
2022-09-17T12:03:24.764Z,3.80
2022-09-17T12:05:53.522Z,4.05
2022-09-17T12:08:22.538Z,7.35
2022-09-17T12:10:53.819Z,6.60
2022-09-17T12:13:27.822Z,6.65
2022-09-17T12:16:02.265Z,5.80
2022-09-17T12:18:33.863Z,6.30
2022-09-17T12:21:02.517Z,9.85
2022-09-17T12:23:35.840Z,7.00
2022-09-17T12:26:09.651Z,8.75
2022-09-17T12:28:40.802Z,7.80
2022-09-17T12:31:11.486Z,10.82
2022-09-17T12:33:39.866Z,11.40
2022-09-17T12:36:17.345Z,9.60
2022-09-17T12:39:08.189Z,6.30
2022-09-17T12:41:43.776Z,9.93
2022-09-17T12:44:32.517Z,11.90
2022-09-17T12:47:38.749Z,11.30
2022-09-17T12:50:13.950Z,18.27
2022-09-17T12:52:46.693Z,15.88
2022-09-17T12:55:31.478Z,13.07
2022-09-17T12:58:06.292Z,16.20
2022-09-17T13:00:36.118Z,15.68
2022-09-17T13:03:06.764Z,14.15
2022-09-17T13:06:19.232Z,93.22
2022-09-17T13:09:08.382Z,15.90
2022-09-17T13:12:00.735Z,28.48
2022-09-17T13:14:34.429Z,17.98
2022-09-17T13:17:04.293Z,30.80
2022-09-17T13:19:35.504Z,32.85
2022-09-17T13:22:07.052Z,16.15
2022-09-17T13:24:35.140Z,30.00
2022-09-17T13:27:03.765Z,19.02
2022-09-17T13:30:03.838Z,21.42
2022-09-17T13:32:51.716Z,19.75
2022-09-17T13:35:47.047Z,21.25
2022-09-17T13:38:15.883Z,27.67
2022-09-17T13:40:43.933Z,25.73
2022-09-17T13:43:13.536Z,28.38
2022-09-17T13:46:10.993Z,33.58
2022-09-17T13:48:38.772Z,20.92
2022-09-17T13:51:43.279Z,25.58
2022-09-17T13:54:11.285Z,19.48
2022-09-17T13:56:41.317Z,8.75
2022-09-17T13:59:09.822Z,36.95
2022-09-17T14:01:58.909Z,47.72
2022-09-17T14:04:52.316Z,21.92
2022-09-17T14:07:36.140Z,15.55
2022-09-17T14:10:25.795Z,10.98
2022-09-17T14:12:56.017Z,19.83
2022-09-17T14:15:49.629Z,18.77
2022-09-17T14:18:37.402Z,15.73
2022-09-17T14:21:16.278Z,94.88
2022-09-17T14:23:44.919Z,46.60
2022-09-17T14:26:15.313Z,31.40
2022-09-17T14:28:45.022Z,48.15
2022-09-17T14:31:17.574Z,42.35
2022-09-17T14:33:46.612Z,43.08
2022-09-17T14:36:16.692Z,27.08
2022-09-17T14:38:45.507Z,44.67
2022-09-17T14:41:20.026Z,49.20
2022-09-17T14:43:50.973Z,24.73
2022-09-17T14:46:20.787Z,17.67
2022-09-17T14:48:51.505Z,28.30
2022-09-17T14:51:27.217Z,12.10
2022-09-17T14:54:11.971Z,13.80
2022-09-17T14:56:44.866Z,6.85
2022-09-17T14:59:15.865Z,22.42
2022-09-17T15:01:47.039Z,31.63
2022-09-17T15:04:33.817Z,23.05
2022-09-17T15:07:08.018Z,14.98
2022-09-17T15:09:35.745Z,16.92
2022-09-17T15:12:04.053Z,14.00
2022-09-17T15:14:32.444Z,20.63
2022-09-17T15:17:01.189Z,19.10
2022-09-17T15:19:33.253Z,25.75
2022-09-17T15:22:05.733Z,42.63
2022-09-17T15:24:38.222Z,37.60
2022-09-17T15:27:07.754Z,23.35
2022-09-17T15:29:35.415Z,18.55
2022-09-17T15:32:05.159Z,21.20
2022-09-17T15:34:32.796Z,15.05
2022-09-17T15:37:07.938Z,20.38
2022-09-17T15:39:40.369Z,22.40
2022-09-17T15:42:18.268Z,99.63
2022-09-17T15:44:45.913Z,23.45
2022-09-17T15:47:50.879Z,25.98
2022-09-17T15:50:19.348Z,29.40
2022-09-17T15:52:48.448Z,21.85
2022-09-17T15:55:32.636Z,30.02
2022-09-17T15:58:00.700Z,30.55
2022-09-17T16:00:28.520Z,27.17
2022-09-17T16:02:56.270Z,27.40
2022-09-17T16:05:55.618Z,25.85
2022-09-17T16:08:25.655Z,32.55
2022-09-17T16:10:53.329Z,18.35
2022-09-17T16:13:24.080Z,19.40
2022-09-17T16:15:54.207Z,17.55
2022-09-17T16:18:21.923Z,20.45
2022-09-17T16:20:49.599Z,15.32
2022-09-17T16:23:17.312Z,16.95
2022-09-17T16:25:46.391Z,14.95
2022-09-17T16:28:15.247Z,19.73
2022-09-17T16:30:44.900Z,18.30
2022-09-17T16:33:13.496Z,18.38
2022-09-17T16:35:41.355Z,14.80
2022-09-17T16:38:09.209Z,17.00
2022-09-17T16:40:41.071Z,12.80
2022-09-17T16:43:10.396Z,13.48
2022-09-17T16:45:38.231Z,16.05
2022-09-17T16:48:06.666Z,10.63
2022-09-17T16:50:35.796Z,13.25
2022-09-17T16:53:05.531Z,12.27
2022-09-17T16:55:33.351Z,10.15
2022-09-17T16:58:01.006Z,12.15
2022-09-17T17:00:30.371Z,6.40
2022-09-17T17:02:58.781Z,13.15
2022-09-17T17:05:27.030Z,13.48
2022-09-17T17:07:55.863Z,14.52
2022-09-17T17:10:23.618Z,12.45
2022-09-17T17:12:51.325Z,13.35
2022-09-17T17:15:19.603Z,15.20
2022-09-17T17:17:48.806Z,11.18
2022-09-17T17:20:16.843Z,12.75
2022-09-17T17:22:44.569Z,9.80
2022-09-17T17:25:12.703Z,11.15
2022-09-17T17:27:40.907Z,7.72
2022-09-17T17:30:09.771Z,9.30
2022-09-17T17:32:37.957Z,9.93
2022-09-17T17:35:08.884Z,7.95
2022-09-17T17:37:36.695Z,8.40
2022-09-17T17:40:06.904Z,7.78
2022-09-17T17:42:38.059Z,10.63
2022-09-17T17:45:06.653Z,8.95
2022-09-17T17:47:34.451Z,8.68
2022-09-17T17:50:02.237Z,8.57
2022-09-17T17:52:31.731Z,8.40
2022-09-17T17:54:59.399Z,8.43
2022-09-17T17:57:27.163Z,10.77
2022-09-17T17:59:54.870Z,7.15
2022-09-17T18:02:22.789Z,6.80
2022-09-17T18:04:50.761Z,6.72
2022-09-17T18:07:18.609Z,4.55
2022-09-17T18:09:47.713Z,6.70
2022-09-17T18:12:15.525Z,5.50
2022-09-17T18:14:43.226Z,7.25
2022-09-17T18:17:11.022Z,4.45
2022-09-17T18:19:38.839Z,7.05
2022-09-17T18:22:06.520Z,6.70
2022-09-17T18:24:34.260Z,8.85
2022-09-17T18:27:03.628Z,6.65
2022-09-17T18:29:31.543Z,5.82
2022-09-17T18:31:59.184Z,6.75
2022-09-17T18:34:27.226Z,8.23
2022-09-17T18:36:54.881Z,7.30
2022-09-17T18:42:11.662Z,8.43
2022-09-17T18:44:39.358Z,5.28
2022-09-17T18:47:07.120Z,5.28
2022-09-17T18:49:34.835Z,7.20
2022-09-17T18:52:02.948Z,4.55
2022-09-17T18:54:30.608Z,4.07
2022-09-17T18:56:58.308Z,8.75
2022-09-17T18:59:27.304Z,4.85
2022-09-17T19:01:55.073Z,8.10
2022-09-17T19:04:22.897Z,4.53
2022-09-17T19:06:50.543Z,5.28
2022-09-17T19:09:18.237Z,6.88
2022-09-17T19:11:45.905Z,5.47
2022-09-17T19:14:13.573Z,4.20
2022-09-17T19:16:42.559Z,3.53
2022-09-17T19:19:10.211Z,5.72
2022-09-17T19:21:37.884Z,5.63
2022-09-17T19:24:05.984Z,5.88
2022-09-17T19:26:33.622Z,6.20
2022-09-17T19:29:01.771Z,4.28
2022-09-17T19:31:29.631Z,5.00
2022-09-17T19:33:59.700Z,5.95
2022-09-17T19:36:27.364Z,5.90
2022-09-17T19:38:55.266Z,3.83
2022-09-17T19:41:23.745Z,3.97
2022-09-17T19:43:51.728Z,3.92
2022-09-17T19:46:20.581Z,4.53
2022-09-17T19:48:48.812Z,4.28
2022-09-17T19:51:18.051Z,4.55
2022-09-17T19:53:46.138Z,4.38
2022-09-17T19:56:14.453Z,5.22
2022-09-17T19:58:42.217Z,5.32
2022-09-17T20:01:10.154Z,4.22
2022-09-17T20:03:39.004Z,6.82
2022-09-17T20:06:08.513Z,2.70
2022-09-17T20:08:42.536Z,4.03
2022-09-17T20:11:12.572Z,4.35
2022-09-17T20:13:40.284Z,5.38
2022-09-17T20:16:09.528Z,4.13
2022-09-17T20:18:37.298Z,2.80
2022-09-17T20:21:08.470Z,3.00
2022-09-17T20:23:37.471Z,3.95
2022-09-17T20:26:05.391Z,3.95
2022-09-17T20:28:33.211Z,3.67
2022-09-17T20:31:02.171Z,3.53
2022-09-17T20:33:30.080Z,5.22
2022-09-17T20:36:00.984Z,4.05
2022-09-17T20:41:17.977Z,2.45
2022-09-17T20:43:46.883Z,2.85
2022-09-17T20:46:14.697Z,4.07
2022-09-17T20:48:42.443Z,4.13
2022-09-17T20:51:12.364Z,3.08
2022-09-17T20:53:40.029Z,2.10
2022-09-17T20:56:08.829Z,2.97
2022-09-17T20:58:39.400Z,4.15
2022-09-17T21:01:08.167Z,2.83
2022-09-17T21:03:36.020Z,2.80
2022-09-17T21:06:03.727Z,2.45
2022-09-17T21:08:31.406Z,3.63
2022-09-17T21:10:59.074Z,4.18
2022-09-17T21:13:26.718Z,2.80
2022-09-17T21:15:59.389Z,3.13
2022-09-17T21:18:27.065Z,4.80
2022-09-17T21:20:54.845Z,2.85
2022-09-17T21:23:25.617Z,2.63
2022-09-17T21:25:53.342Z,1.83
2022-09-17T21:28:21.729Z,4.53
2022-09-17T21:30:49.432Z,3.30
2022-09-17T21:33:22.735Z,2.65
2022-09-17T21:35:51.360Z,3.67
2022-09-17T21:38:20.207Z,2.58
2022-09-17T21:40:56.667Z,2.22
2022-09-17T21:43:24.469Z,3.55
2022-09-17T21:45:59.883Z,2.67
2022-09-17T21:48:29.004Z,2.53
2022-09-17T21:51:02.802Z,2.92
2022-09-17T21:53:32.498Z,3.28
2022-09-17T21:56:04.764Z,3.47
2022-09-17T21:58:32.542Z,3.25
2022-09-17T22:01:05.185Z,3.22
2022-09-17T22:03:34.178Z,2.92
2022-09-17T22:06:03.175Z,2.63
2022-09-17T22:08:31.290Z,2.28
2022-09-17T22:11:07.144Z,2.88
2022-09-17T22:13:35.056Z,2.20
2022-09-17T22:16:04.070Z,2.28
2022-09-17T22:18:32.127Z,2.45
2022-09-17T22:21:01.228Z,3.60
2022-09-17T22:23:28.880Z,4.00
2022-09-17T22:26:06.689Z,1.98
2022-09-17T22:28:35.043Z,2.40
2022-09-17T22:31:03.111Z,2.95
2022-09-17T22:33:33.118Z,2.85
2022-09-17T22:36:06.276Z,3.30
2022-09-17T22:38:33.983Z,2.40
2022-09-17T22:41:05.972Z,1.65
2022-09-17T22:43:33.724Z,2.00
2022-09-17T22:46:01.453Z,1.77
2022-09-17T22:48:29.191Z,1.90
2022-09-17T22:50:56.828Z,2.65
2022-09-17T22:53:25.799Z,2.30
2022-09-17T22:55:56.781Z,1.75
2022-09-17T22:58:24.587Z,2.38
2022-09-17T23:00:53.187Z,2.72
2022-09-17T23:03:20.925Z,1.75
2022-09-17T23:05:48.691Z,2.40
2022-09-17T23:08:16.345Z,2.03
2022-09-17T23:10:45.365Z,1.63
2022-09-17T23:13:13.036Z,2.80
2022-09-17T23:15:40.776Z,2.15
2022-09-17T23:18:08.561Z,2.33
2022-09-17T23:20:36.239Z,2.15
2022-09-17T23:23:03.961Z,2.30
2022-09-17T23:25:31.629Z,2.47
2022-09-17T23:28:00.643Z,2.35
2022-09-17T23:30:28.460Z,2.55
2022-09-17T23:32:56.165Z,1.95
2022-09-17T23:35:23.887Z,2.72
2022-09-17T23:37:51.663Z,2.63
2022-09-17T23:40:21.810Z,1.85
2022-09-17T23:42:49.468Z,1.98
2022-09-17T23:45:18.635Z,2.55
2022-09-17T23:47:46.281Z,1.50
2022-09-17T23:50:13.988Z,2.83
2022-09-17T23:52:41.701Z,2.15
2022-09-17T23:55:10.040Z,1.70
2022-09-17T23:57:37.748Z,2.47
